createdAt,value
2016-08-20T04:00:52.706Z,22.57
2016-08-20T04:01:40.526Z,22.59
2016-08-20T04:02:06.206Z,22.54
2016-08-20T04:02:31.765Z,22.6
2016-08-20T04:02:57.336Z,22.65
2016-08-20T04:03:22.885Z,22.64
2016-08-20T04:03:48.466Z,22.53
2016-08-20T04:04:14.029Z,22.65
2016-08-20T04:04:39.748Z,22.56
2016-08-20T04:05:05.368Z,22.62
2016-08-20T04:05:30.935Z,22.47
2016-08-20T04:05:56.564Z,22.64
2016-08-20T04:06:22.178Z,22.65
2016-08-20T04:06:47.682Z,22.62
2016-08-20T04:07:13.245Z,22.62
2016-08-20T04:07:38.824Z,22.56
2016-08-20T04:08:04.416Z,22.5
2016-08-20T04:08:29.989Z,22.57
2016-08-20T04:08:55.540Z,22.57
2016-08-20T04:09:21.091Z,22.67
2016-08-20T04:09:46.635Z,22.54
2016-08-20T04:10:12.196Z,22.65
2016-08-20T04:10:37.775Z,22.54
2016-08-20T04:11:03.410Z,22.62
2016-08-20T04:11:28.960Z,22.54
2016-08-20T04:11:54.517Z,22.62
2016-08-20T04:12:20.093Z,22.62
2016-08-20T04:12:45.685Z,22.67
2016-08-20T04:13:11.258Z,22.52
2016-08-20T04:13:36.901Z,22.54
2016-08-20T04:14:02.475Z,22.59
2016-08-20T04:14:28.039Z,22.54
2016-08-20T04:14:53.601Z,22.62
2016-08-20T04:15:19.175Z,22.59
2016-08-20T04:15:44.747Z,22.64
2016-08-20T04:16:10.317Z,22.53
2016-08-20T04:16:35.875Z,22.62
2016-08-20T04:17:01.439Z,22.56
2016-08-20T04:17:27.012Z,22.65
2016-08-20T04:17:52.567Z,22.59
2016-08-20T04:18:18.134Z,22.56
2016-08-20T04:18:43.835Z,22.6
2016-08-20T04:19:09.497Z,22.56
2016-08-20T04:19:35.078Z,22.62
2016-08-20T04:20:00.851Z,22.53
2016-08-20T04:20:26.405Z,22.56
2016-08-20T04:20:51.956Z,22.53
2016-08-20T04:21:17.519Z,22.56
2016-08-20T04:21:43.096Z,22.59
2016-08-20T04:22:08.674Z,22.56
2016-08-20T04:22:34.224Z,22.56
2016-08-20T04:22:59.785Z,22.54
2016-08-20T04:23:25.390Z,22.56
2016-08-20T04:23:50.968Z,22.52
2016-08-20T04:24:16.635Z,22.62
2016-08-20T04:24:42.229Z,22.56
2016-08-20T04:25:07.848Z,22.54
2016-08-20T04:25:33.412Z,22.56
2016-08-20T04:25:59.067Z,22.62
2016-08-20T04:26:24.662Z,22.54
2016-08-20T04:26:50.213Z,22.59
2016-08-20T04:27:15.772Z,22.53
2016-08-20T04:27:41.326Z,22.54
2016-08-20T04:28:06.911Z,22.56
2016-08-20T04:28:32.493Z,22.6
2016-08-20T04:28:58.066Z,22.52
2016-08-20T04:29:23.645Z,22.56
2016-08-20T04:29:49.259Z,22.59
2016-08-20T04:30:14.817Z,22.59
2016-08-20T04:30:40.379Z,22.62
2016-08-20T04:31:05.955Z,22.59
2016-08-20T04:31:31.503Z,22.62
2016-08-20T04:31:57.097Z,22.54
2016-08-20T04:32:22.658Z,22.64
2016-08-20T04:32:48.220Z,22.62
2016-08-20T04:33:13.826Z,22.62
2016-08-20T04:33:39.396Z,22.52
2016-08-20T04:34:04.977Z,22.62
2016-08-20T04:35:08.238Z,22.52
2016-08-20T04:35:33.825Z,22.56
2016-08-20T04:35:59.380Z,22.62
2016-08-20T04:36:24.965Z,22.65
2016-08-20T04:36:50.513Z,22.62
2016-08-20T04:37:16.081Z,22.62
2016-08-20T04:37:41.641Z,22.59
2016-08-20T04:38:07.197Z,22.6
2016-08-20T04:38:32.815Z,22.67
2016-08-20T04:38:58.420Z,22.52
2016-08-20T04:39:23.964Z,22.54
2016-08-20T04:39:49.514Z,22.54
2016-08-20T04:40:15.095Z,22.54
2016-08-20T04:40:40.674Z,22.64
2016-08-20T04:41:06.281Z,22.56
2016-08-20T04:41:31.833Z,22.62
2016-08-20T04:41:57.388Z,22.62
2016-08-20T04:42:23.001Z,22.64
2016-08-20T04:42:48.555Z,22.53
2016-08-20T04:43:14.106Z,22.54
2016-08-20T04:43:39.682Z,22.59
2016-08-20T04:44:05.251Z,22.62
2016-08-20T04:44:30.883Z,22.65
2016-08-20T04:44:56.488Z,22.57
2016-08-20T04:45:22.035Z,22.64
2016-08-20T04:45:47.667Z,22.64
2016-08-20T04:46:13.337Z,22.6
2016-08-20T04:46:38.990Z,22.54
2016-08-20T04:47:04.567Z,22.54
2016-08-20T04:47:30.187Z,22.59
2016-08-20T04:47:55.749Z,22.54
2016-08-20T04:48:21.329Z,22.65
2016-08-20T04:48:46.901Z,22.56
2016-08-20T04:49:12.532Z,22.59
2016-08-20T04:49:38.101Z,22.59
2016-08-20T04:50:03.764Z,22.56
2016-08-20T04:50:29.309Z,22.65
2016-08-20T04:50:54.878Z,22.65
2016-08-20T04:51:20.494Z,22.65
2016-08-20T04:51:46.178Z,22.57
2016-08-20T04:52:11.748Z,22.65
2016-08-20T04:52:37.317Z,22.6
2016-08-20T04:53:02.889Z,22.62
2016-08-20T04:53:28.449Z,22.62
2016-08-20T04:53:54.047Z,22.59
2016-08-20T04:54:19.616Z,22.68
2016-08-20T04:54:45.184Z,22.62
2016-08-20T04:55:10.746Z,22.6
2016-08-20T04:55:36.325Z,22.54
2016-08-20T04:56:01.897Z,22.56
2016-08-20T04:56:27.459Z,22.57
2016-08-20T04:56:53.115Z,22.64
2016-08-20T04:57:18.701Z,22.53
2016-08-20T04:57:44.268Z,22.59
2016-08-20T04:58:09.914Z,22.59
2016-08-20T04:58:35.478Z,22.59
2016-08-20T04:59:01.048Z,22.59
2016-08-20T04:59:26.604Z,22.6
2016-08-20T04:59:52.206Z,22.54
2016-08-20T05:00:17.777Z,22.59
2016-08-20T05:00:43.308Z,22.6
2016-08-20T05:01:08.872Z,22.59
2016-08-20T05:01:34.476Z,22.59
2016-08-20T05:02:00.037Z,22.57
2016-08-20T05:02:25.690Z,22.59
2016-08-20T05:02:51.256Z,22.67
2016-08-20T05:03:16.833Z,22.54
2016-08-20T05:03:42.406Z,22.64
2016-08-20T05:04:07.980Z,22.59
2016-08-20T05:04:33.556Z,22.59
2016-08-20T05:04:59.107Z,22.56
2016-08-20T05:05:24.693Z,22.57
2016-08-20T05:05:50.272Z,22.53
2016-08-20T05:06:15.828Z,22.67
2016-08-20T05:06:41.384Z,22.6
2016-08-20T05:07:06.943Z,22.54
2016-08-20T05:07:32.502Z,22.53
2016-08-20T05:07:58.044Z,22.56
2016-08-20T05:08:23.603Z,22.62
2016-08-20T05:08:49.176Z,22.53
2016-08-20T05:09:14.771Z,22.59
2016-08-20T05:09:40.339Z,22.62
2016-08-20T05:10:05.960Z,22.54
2016-08-20T05:10:31.551Z,22.62
2016-08-20T05:10:57.116Z,22.62
2016-08-20T05:11:22.736Z,22.53
2016-08-20T05:11:48.292Z,22.57
2016-08-20T05:12:13.864Z,22.59
2016-08-20T05:12:39.506Z,22.62
2016-08-20T05:13:05.057Z,22.54
2016-08-20T05:13:30.614Z,22.62
2016-08-20T05:13:56.184Z,22.59
2016-08-20T05:14:21.725Z,22.54
2016-08-20T05:14:47.297Z,22.52
2016-08-20T05:15:12.854Z,22.57
2016-08-20T05:15:38.420Z,22.54
2016-08-20T05:16:03.977Z,22.64
2016-08-20T05:16:29.525Z,22.59
2016-08-20T05:16:55.100Z,22.57
2016-08-20T05:17:20.659Z,22.65
2016-08-20T05:17:46.223Z,22.56
2016-08-20T05:18:11.778Z,22.57
2016-08-20T05:18:37.346Z,22.52
2016-08-20T05:19:02.953Z,22.57
2016-08-20T05:19:28.536Z,22.59
2016-08-20T05:19:54.094Z,22.67
2016-08-20T05:21:02.585Z,22.6
2016-08-20T05:22:10.854Z,22.62
2016-08-20T05:22:36.466Z,22.54
2016-08-20T05:23:02.020Z,22.68
2016-08-20T05:23:27.578Z,22.64
2016-08-20T05:23:53.162Z,22.74
2016-08-20T05:24:18.720Z,22.62
2016-08-20T05:24:44.276Z,22.68
2016-08-20T05:25:09.979Z,22.64
2016-08-20T05:25:35.610Z,22.6
2016-08-20T05:26:01.210Z,22.67
2016-08-20T05:26:26.956Z,22.67
2016-08-20T05:26:52.515Z,22.62
2016-08-20T05:27:18.091Z,22.59
2016-08-20T05:27:43.659Z,22.74
2016-08-20T05:28:09.224Z,22.65
2016-08-20T05:28:35.015Z,22.68
2016-08-20T05:29:00.593Z,22.75
2016-08-20T05:29:26.195Z,22.72
2016-08-20T05:29:51.802Z,22.77
2016-08-20T05:30:17.453Z,22.74
2016-08-20T05:30:43.025Z,22.78
2016-08-20T05:31:08.655Z,22.78
2016-08-20T05:31:34.237Z,22.74
2016-08-20T05:31:59.822Z,22.8
2016-08-20T05:32:25.412Z,22.93
2016-08-20T05:32:50.985Z,22.89
2016-08-20T05:33:16.534Z,22.84
2016-08-20T05:33:42.089Z,22.93
2016-08-20T05:34:07.742Z,23.02
2016-08-20T05:34:33.325Z,22.99
2016-08-20T05:34:58.886Z,23.02
2016-08-20T05:35:24.445Z,22.94
2016-08-20T05:35:50.005Z,22.97
2016-08-20T05:36:15.622Z,23.08
2016-08-20T05:36:41.280Z,23.01
2016-08-20T05:37:07.078Z,22.99
2016-08-20T05:37:32.648Z,23.07
2016-08-20T05:37:58.199Z,23.01
2016-08-20T05:38:23.772Z,22.99
2016-08-20T05:38:49.335Z,23.04
2016-08-20T05:39:14.897Z,23.09
2016-08-20T05:39:40.486Z,22.99
2016-08-20T05:40:06.088Z,22.97
2016-08-20T05:40:31.655Z,22.99
2016-08-20T05:40:57.271Z,22.94
2016-08-20T05:41:22.882Z,22.99
2016-08-20T05:41:48.500Z,22.99
2016-08-20T05:42:14.079Z,22.97
2016-08-20T05:42:39.638Z,22.96
2016-08-20T05:43:05.229Z,22.97
2016-08-20T05:43:30.771Z,23.02
2016-08-20T05:43:56.381Z,22.99
2016-08-20T05:44:21.930Z,22.96
2016-08-20T05:44:47.480Z,23.05
2016-08-20T05:45:13.037Z,23.01
2016-08-20T05:45:38.614Z,22.94
2016-08-20T05:46:04.243Z,22.99
2016-08-20T05:46:29.832Z,22.94
2016-08-20T05:46:55.409Z,22.92
2016-08-20T05:47:21.011Z,22.93
2016-08-20T05:47:46.576Z,22.93
2016-08-20T05:48:12.387Z,22.86
2016-08-20T05:48:37.994Z,22.93
2016-08-20T05:49:03.588Z,22.9
2016-08-20T05:49:29.159Z,22.93
2016-08-20T05:49:54.745Z,22.87
2016-08-20T05:50:20.321Z,22.86
2016-08-20T05:50:45.895Z,22.87
2016-08-20T05:51:11.505Z,22.89
2016-08-20T05:51:37.073Z,22.87
2016-08-20T05:52:02.784Z,22.82
2016-08-20T05:52:28.419Z,22.82
2016-08-20T05:52:53.977Z,22.8
2016-08-20T05:53:19.539Z,22.8
2016-08-20T05:53:45.228Z,22.77
2016-08-20T05:54:10.789Z,22.75
2016-08-20T05:54:36.443Z,22.8
2016-08-20T05:55:02.138Z,22.82
2016-08-20T05:55:27.730Z,22.75
2016-08-20T05:55:53.326Z,22.77
2016-08-20T05:56:18.910Z,22.78
2016-08-20T05:56:44.485Z,22.77
2016-08-20T05:57:10.049Z,22.77
2016-08-20T05:57:35.618Z,22.74
2016-08-20T05:58:01.192Z,22.74
2016-08-20T05:58:26.762Z,22.74
2016-08-20T05:58:52.321Z,22.77
2016-08-20T05:59:18.002Z,22.83
2016-08-20T05:59:43.639Z,22.77
2016-08-20T06:00:09.212Z,22.74
2016-08-20T06:00:34.842Z,22.83
2016-08-20T06:01:27.826Z,22.71
2016-08-20T06:01:53.384Z,22.8
2016-08-20T06:02:18.965Z,22.8
2016-08-20T06:02:44.528Z,22.78
2016-08-20T06:03:10.234Z,22.75
2016-08-20T06:03:35.790Z,22.77
2016-08-20T06:04:01.353Z,22.75
2016-08-20T06:04:26.904Z,22.72
2016-08-20T06:04:52.552Z,22.77
2016-08-20T06:05:18.190Z,22.75
2016-08-20T06:05:43.753Z,22.71
2016-08-20T06:06:09.352Z,22.78
2016-08-20T06:06:34.928Z,22.82
2016-08-20T06:07:00.497Z,22.74
2016-08-20T06:07:26.178Z,22.77
2016-08-20T06:07:51.734Z,22.8
2016-08-20T06:08:17.293Z,22.77
2016-08-20T06:08:42.847Z,22.74
2016-08-20T06:09:08.451Z,22.82
2016-08-20T06:09:34.035Z,22.72
2016-08-20T06:09:59.583Z,22.75
2016-08-20T06:10:25.351Z,22.74
2016-08-20T06:10:50.910Z,22.78
2016-08-20T06:11:16.534Z,22.77
2016-08-20T06:11:42.234Z,22.71
2016-08-20T06:12:07.785Z,22.77
2016-08-20T06:12:33.374Z,22.71
2016-08-20T06:12:58.943Z,22.72
2016-08-20T06:13:24.515Z,22.74
2016-08-20T06:13:50.082Z,22.78
2016-08-20T06:14:15.630Z,22.77
2016-08-20T06:14:41.202Z,22.74
2016-08-20T06:15:06.788Z,22.75
2016-08-20T06:15:32.363Z,22.74
2016-08-20T06:15:57.924Z,22.78
2016-08-20T06:16:23.590Z,22.77
2016-08-20T06:16:49.210Z,22.75
2016-08-20T06:17:14.884Z,22.74
2016-08-20T06:17:40.458Z,22.71
2016-08-20T06:18:06.033Z,22.72
2016-08-20T06:18:31.612Z,22.78
2016-08-20T06:18:57.195Z,22.69
2016-08-20T06:19:22.754Z,22.77
2016-08-20T06:19:48.323Z,22.69
2016-08-20T06:20:13.892Z,22.78
2016-08-20T06:20:39.445Z,22.69
2016-08-20T06:21:04.987Z,22.75
2016-08-20T06:21:30.583Z,22.69
2016-08-20T06:21:56.130Z,22.75
2016-08-20T06:22:21.705Z,22.74
2016-08-20T06:22:47.273Z,22.75
2016-08-20T06:23:12.857Z,22.72
2016-08-20T06:23:38.434Z,22.69
2016-08-20T06:24:03.985Z,22.74
2016-08-20T06:24:29.533Z,22.74
2016-08-20T06:24:55.110Z,22.74
2016-08-20T06:25:20.819Z,22.74
2016-08-20T06:25:46.389Z,22.71
2016-08-20T06:26:11.953Z,22.75
2016-08-20T06:26:37.493Z,22.69
2016-08-20T06:27:03.057Z,22.72
2016-08-20T06:27:28.622Z,22.78
2016-08-20T06:27:54.196Z,22.69
2016-08-20T06:28:19.778Z,22.69
2016-08-20T06:28:45.348Z,22.78
2016-08-20T06:29:10.937Z,22.8
2016-08-20T06:29:36.509Z,22.75
2016-08-20T06:30:02.068Z,22.71
2016-08-20T06:30:27.629Z,22.74
2016-08-20T06:30:53.261Z,22.78
2016-08-20T06:31:18.812Z,22.71
2016-08-20T06:31:44.509Z,22.75
2016-08-20T06:32:09.960Z,22.69
2016-08-20T06:32:35.589Z,22.65
2016-08-20T06:33:01.119Z,22.74
2016-08-20T06:33:26.656Z,22.69
2016-08-20T06:33:52.214Z,22.69
2016-08-20T06:34:17.855Z,22.75
2016-08-20T06:34:43.488Z,22.69
2016-08-20T06:35:09.050Z,22.74
2016-08-20T06:35:34.605Z,22.69
2016-08-20T06:36:00.178Z,22.71
2016-08-20T06:36:25.748Z,22.71
2016-08-20T06:36:51.308Z,22.74
2016-08-20T06:37:17.027Z,22.74
2016-08-20T06:37:42.584Z,22.8
2016-08-20T06:38:08.182Z,22.72
2016-08-20T06:38:33.783Z,22.74
2016-08-20T06:38:59.391Z,22.74
2016-08-20T06:39:25.010Z,22.69
2016-08-20T06:39:50.593Z,22.77
2016-08-20T06:40:16.163Z,22.71
2016-08-20T06:40:41.731Z,22.71
2016-08-20T06:41:07.415Z,22.72
2016-08-20T06:41:33.092Z,22.74
2016-08-20T06:41:58.673Z,22.75
2016-08-20T06:42:24.233Z,22.67
2016-08-20T06:42:49.890Z,22.75
2016-08-20T06:43:15.502Z,22.74
2016-08-20T06:43:41.069Z,22.68
2016-08-20T06:44:06.615Z,22.69
2016-08-20T06:44:32.167Z,22.68
2016-08-20T06:44:57.759Z,22.71
2016-08-20T06:45:23.336Z,22.82
2016-08-20T06:45:48.885Z,22.78
2016-08-20T06:46:14.459Z,22.74
2016-08-20T06:46:40.060Z,22.74
2016-08-20T06:47:05.593Z,22.69
2016-08-20T06:47:31.157Z,22.77
2016-08-20T06:47:56.746Z,22.69
2016-08-20T06:48:22.430Z,22.74
2016-08-20T06:48:47.999Z,22.71
2016-08-20T06:49:13.699Z,22.72
2016-08-20T06:49:39.256Z,22.71
2016-08-20T06:50:04.835Z,22.74
2016-08-20T06:50:30.394Z,22.68
2016-08-20T06:50:56.038Z,22.74
2016-08-20T06:51:21.595Z,22.74
2016-08-20T06:51:47.173Z,22.71
2016-08-20T06:52:12.801Z,22.74
2016-08-20T06:52:38.453Z,22.75
2016-08-20T06:53:04.025Z,22.71
2016-08-20T06:53:29.618Z,22.75
2016-08-20T06:53:55.162Z,22.71
2016-08-20T06:54:20.730Z,22.75
2016-08-20T06:54:46.325Z,22.75
2016-08-20T06:55:11.884Z,22.69
2016-08-20T06:55:37.453Z,22.69
2016-08-20T06:56:03.037Z,22.74
2016-08-20T06:56:28.600Z,22.78
2016-08-20T06:56:54.174Z,22.77
2016-08-20T06:57:19.832Z,22.74
2016-08-20T06:57:45.406Z,22.77
2016-08-20T06:58:10.963Z,22.69
2016-08-20T06:58:36.661Z,22.68
2016-08-20T06:59:02.243Z,22.68
2016-08-20T06:59:27.814Z,22.69
2016-08-20T06:59:53.512Z,22.77
2016-08-20T07:00:19.072Z,22.75
2016-08-20T07:00:44.635Z,22.75
2016-08-20T07:01:52.957Z,22.74
2016-08-20T07:02:18.576Z,22.78
2016-08-20T07:02:44.157Z,22.71
2016-08-20T07:03:09.706Z,22.8
2016-08-20T07:03:35.274Z,22.77
2016-08-20T07:04:00.935Z,22.68
2016-08-20T07:04:26.520Z,22.77
2016-08-20T07:04:52.249Z,22.8
2016-08-20T07:05:17.896Z,22.78
2016-08-20T07:05:43.456Z,22.8
2016-08-20T07:06:09.010Z,22.75
2016-08-20T07:06:34.696Z,22.78
2016-08-20T07:07:00.244Z,22.74
2016-08-20T07:07:25.795Z,22.78
2016-08-20T07:07:51.376Z,22.78
2016-08-20T07:08:16.931Z,22.74
2016-08-20T07:08:42.499Z,22.78
2016-08-20T07:09:08.058Z,22.78
2016-08-20T07:09:33.614Z,22.77
2016-08-20T07:09:59.259Z,22.83
2016-08-20T07:10:24.866Z,22.78
2016-08-20T07:10:50.430Z,22.8
2016-08-20T07:11:16.126Z,22.77
2016-08-20T07:11:41.676Z,22.77
2016-08-20T07:12:07.232Z,22.78
2016-08-20T07:12:32.818Z,22.77
2016-08-20T07:12:58.397Z,22.77
2016-08-20T07:13:23.974Z,22.78
2016-08-20T07:13:49.564Z,22.77
2016-08-20T07:14:15.123Z,22.71
2016-08-20T07:14:40.671Z,22.78
2016-08-20T07:15:06.322Z,22.74
2016-08-20T07:15:31.895Z,22.75
2016-08-20T07:15:57.453Z,22.82
2016-08-20T07:16:23.226Z,22.74
2016-08-20T07:16:48.834Z,22.74
2016-08-20T07:17:14.385Z,22.8
2016-08-20T07:17:39.948Z,22.74
2016-08-20T07:18:05.561Z,22.77
2016-08-20T07:18:31.141Z,22.75
2016-08-20T07:18:56.705Z,22.78
2016-08-20T07:19:22.380Z,22.74
2016-08-20T07:19:47.962Z,22.71
2016-08-20T07:20:13.779Z,22.78
2016-08-20T07:20:39.356Z,22.78
2016-08-20T07:21:05.088Z,22.8
2016-08-20T07:21:30.719Z,22.77
2016-08-20T07:21:56.273Z,22.78
2016-08-20T07:22:22.060Z,22.75
2016-08-20T07:22:47.622Z,22.92
2016-08-20T07:23:13.290Z,22.82
2016-08-20T07:23:38.848Z,22.8
2016-08-20T07:24:04.646Z,22.86
2016-08-20T07:24:30.199Z,22.9
2016-08-20T07:24:55.783Z,22.86
2016-08-20T07:25:21.354Z,22.78
2016-08-20T07:25:46.951Z,22.89
2016-08-20T07:26:12.517Z,22.77
2016-08-20T07:26:38.083Z,22.8
2016-08-20T07:27:03.668Z,22.84
2016-08-20T07:27:29.241Z,22.84
2016-08-20T07:27:54.837Z,22.75
2016-08-20T07:28:52.974Z,22.78
2016-08-20T07:29:51.059Z,22.87
2016-08-20T07:30:16.828Z,22.78
2016-08-20T07:30:42.380Z,22.78
2016-08-20T07:31:08.062Z,22.86
2016-08-20T07:31:33.609Z,22.82
2016-08-20T07:31:59.174Z,22.82
2016-08-20T07:32:24.841Z,22.83
2016-08-20T07:32:50.424Z,22.84
2016-08-20T07:33:16.059Z,22.78
2016-08-20T07:33:41.626Z,22.82
2016-08-20T07:34:07.192Z,22.82
2016-08-20T07:34:32.754Z,22.87
2016-08-20T07:34:58.298Z,22.83
2016-08-20T07:35:23.876Z,22.82
2016-08-20T07:35:49.418Z,22.82
2016-08-20T07:36:15.003Z,22.8
2016-08-20T07:36:40.576Z,22.83
2016-08-20T07:37:06.137Z,22.86
2016-08-20T07:37:31.684Z,22.83
2016-08-20T07:37:57.396Z,22.87
2016-08-20T07:38:22.975Z,22.89
2016-08-20T07:38:48.581Z,22.8
2016-08-20T07:39:14.151Z,22.78
2016-08-20T07:40:07.158Z,22.86
2016-08-20T07:40:32.734Z,22.86
2016-08-20T07:40:58.314Z,22.82
2016-08-20T07:41:23.893Z,22.93
2016-08-20T07:41:49.505Z,22.8
2016-08-20T07:42:15.098Z,22.87
2016-08-20T07:42:40.687Z,22.87
2016-08-20T07:43:06.325Z,22.9
2016-08-20T07:43:31.936Z,22.9
2016-08-20T07:43:57.502Z,22.86
2016-08-20T07:44:23.061Z,22.8
2016-08-20T07:44:48.622Z,22.86
2016-08-20T07:45:14.182Z,22.87
2016-08-20T07:45:39.746Z,22.83
2016-08-20T07:46:05.317Z,22.89
2016-08-20T07:46:30.895Z,22.94
2016-08-20T07:46:56.676Z,22.86
2016-08-20T07:47:22.464Z,22.92
2016-08-20T07:47:48.124Z,22.87
2016-08-20T07:48:13.702Z,22.9
2016-08-20T07:48:39.309Z,22.82
2016-08-20T07:49:04.927Z,22.78
2016-08-20T07:49:30.495Z,22.84
2016-08-20T07:49:56.100Z,22.78
2016-08-20T07:50:21.673Z,22.77
2016-08-20T07:50:47.218Z,22.86
2016-08-20T07:51:12.784Z,22.82
2016-08-20T07:51:38.339Z,22.87
2016-08-20T07:52:03.983Z,22.8
2016-08-20T07:52:29.552Z,22.93
2016-08-20T07:52:55.201Z,22.9
2016-08-20T07:53:20.767Z,22.87
2016-08-20T07:53:46.320Z,22.86
2016-08-20T07:54:11.942Z,22.87
2016-08-20T07:54:37.539Z,22.87
2016-08-20T07:55:03.127Z,22.9
2016-08-20T07:55:28.699Z,22.87
2016-08-20T07:55:54.304Z,22.9
2016-08-20T07:56:19.879Z,22.93
2016-08-20T07:56:45.444Z,22.8
2016-08-20T07:57:11.016Z,22.87
2016-08-20T07:57:36.614Z,22.87
2016-08-20T07:58:02.386Z,22.97
2016-08-20T07:58:27.937Z,22.89
2016-08-20T07:58:53.516Z,22.87
2016-08-20T07:59:19.189Z,22.87
2016-08-20T07:59:44.753Z,22.93
2016-08-20T08:00:10.323Z,22.94
2016-08-20T08:00:35.897Z,22.86
2016-08-20T08:01:01.503Z,22.92
2016-08-20T08:01:27.110Z,22.9
2016-08-20T08:01:52.676Z,22.9
2016-08-20T08:02:18.354Z,22.84
2016-08-20T08:02:44.004Z,22.84
2016-08-20T08:03:09.569Z,22.9
2016-08-20T08:03:35.904Z,22.86
2016-08-20T08:04:01.539Z,22.97
2016-08-20T08:04:27.137Z,22.86
2016-08-20T08:04:53.228Z,22.86
2016-08-20T08:05:18.821Z,22.92
2016-08-20T08:05:44.375Z,22.93
2016-08-20T08:06:09.943Z,22.93
2016-08-20T08:06:35.505Z,22.92
2016-08-20T08:07:01.155Z,22.94
2016-08-20T08:07:26.748Z,22.92
2016-08-20T08:07:52.323Z,22.93
2016-08-20T08:08:17.896Z,22.92
2016-08-20T08:08:43.606Z,22.89
2016-08-20T08:09:09.177Z,22.87
2016-08-20T08:09:34.826Z,22.9
2016-08-20T08:10:00.387Z,22.94
2016-08-20T08:10:25.947Z,22.89
2016-08-20T08:10:51.600Z,22.89
2016-08-20T08:11:17.207Z,22.9
2016-08-20T08:11:42.763Z,22.87
2016-08-20T08:12:08.438Z,22.86
2016-08-20T08:12:34.052Z,23.02
2016-08-20T08:12:59.652Z,22.97
2016-08-20T08:13:25.215Z,23.02
2016-08-20T08:13:50.837Z,22.9
2016-08-20T08:14:16.443Z,22.99
2016-08-20T08:14:42.025Z,22.96
2016-08-20T08:15:07.590Z,22.97
2016-08-20T08:15:33.148Z,23.02
2016-08-20T08:15:58.713Z,22.93
2016-08-20T08:16:24.267Z,22.94
2016-08-20T08:16:49.836Z,22.93
2016-08-20T08:17:15.394Z,22.89
2016-08-20T08:17:41.017Z,22.89
2016-08-20T08:18:06.571Z,22.94
2016-08-20T08:18:32.154Z,22.93
2016-08-20T08:18:57.785Z,22.9
2016-08-20T08:19:23.330Z,22.97
2016-08-20T08:19:48.935Z,22.99
2016-08-20T08:20:14.509Z,23.02
2016-08-20T08:20:40.075Z,22.94
2016-08-20T08:21:05.700Z,22.96
2016-08-20T08:21:31.260Z,22.99
2016-08-20T08:21:56.822Z,22.93
2016-08-20T08:22:22.382Z,22.94
2016-08-20T08:22:47.965Z,23.02
2016-08-20T08:23:13.605Z,23.01
2016-08-20T08:23:39.140Z,22.92
2016-08-20T08:24:04.739Z,22.93
2016-08-20T08:24:30.306Z,22.99
2016-08-20T08:24:55.881Z,22.93
2016-08-20T08:25:21.591Z,22.94
2016-08-20T08:25:47.147Z,22.9
2016-08-20T08:26:12.717Z,22.94
2016-08-20T08:26:38.269Z,22.92
2016-08-20T08:27:04.028Z,22.92
2016-08-20T08:27:29.597Z,22.9
2016-08-20T08:27:55.162Z,22.94
2016-08-20T08:28:20.791Z,22.97
2016-08-20T08:28:46.348Z,22.96
2016-08-20T08:29:11.918Z,22.96
2016-08-20T08:29:37.463Z,22.99
2016-08-20T08:30:03.008Z,22.9
2016-08-20T08:30:28.553Z,22.96
2016-08-20T08:30:54.085Z,23.04
2016-08-20T08:31:19.628Z,23.05
2016-08-20T08:31:45.197Z,22.92
2016-08-20T08:32:10.765Z,22.96
2016-08-20T08:32:36.357Z,22.94
2016-08-20T08:33:01.926Z,22.97
2016-08-20T08:33:27.504Z,22.96
2016-08-20T08:33:53.063Z,22.93
2016-08-20T08:34:18.617Z,23.01
2016-08-20T08:34:44.153Z,22.93
2016-08-20T08:35:09.694Z,22.99
2016-08-20T08:35:35.273Z,23.02
2016-08-20T08:36:00.850Z,22.99
2016-08-20T08:36:26.404Z,22.99
2016-08-20T08:36:52.078Z,22.84
2016-08-20T08:37:45.116Z,22.93
2016-08-20T08:38:10.679Z,22.89
2016-08-20T08:38:36.271Z,22.9
2016-08-20T08:39:01.918Z,22.93
2016-08-20T08:39:27.501Z,22.86
2016-08-20T08:39:53.075Z,22.84
2016-08-20T08:40:18.829Z,22.9
2016-08-20T08:40:44.399Z,22.9
2016-08-20T08:41:10.008Z,22.86
2016-08-20T08:41:35.646Z,22.9
2016-08-20T08:42:01.217Z,22.9
2016-08-20T08:42:26.868Z,22.9
2016-08-20T08:42:52.492Z,22.9
2016-08-20T08:43:18.079Z,22.9
2016-08-20T08:43:43.645Z,22.89
2016-08-20T08:44:09.207Z,22.96
2016-08-20T08:44:34.756Z,22.94
2016-08-20T08:45:00.297Z,22.92
2016-08-20T08:45:48.125Z,22.92
2016-08-20T08:46:13.706Z,22.9
2016-08-20T08:46:39.257Z,22.82
2016-08-20T08:47:04.850Z,22.74
2016-08-20T08:47:30.416Z,22.77
2016-08-20T08:47:55.986Z,22.8
2016-08-20T08:48:21.633Z,22.75
2016-08-20T08:48:47.256Z,22.74
2016-08-20T08:49:50.441Z,22.65
2016-08-20T08:50:16.025Z,22.8
2016-08-20T08:50:41.615Z,22.72
2016-08-20T08:51:07.173Z,22.72
2016-08-20T08:51:32.744Z,22.74
2016-08-20T08:51:58.335Z,22.74
2016-08-20T08:52:23.940Z,22.67
2016-08-20T08:52:49.513Z,22.67
2016-08-20T08:53:15.110Z,22.72
2016-08-20T08:54:18.409Z,22.75
2016-08-20T08:54:43.953Z,22.67
2016-08-20T08:55:09.540Z,22.71
2016-08-20T08:55:35.194Z,22.75
2016-08-20T08:56:00.759Z,22.75
2016-08-20T08:56:26.349Z,22.75
2016-08-20T08:56:51.912Z,22.71
2016-08-20T08:57:17.551Z,22.75
2016-08-20T08:57:43.114Z,22.67
2016-08-20T08:58:08.683Z,22.69
2016-08-20T08:58:34.386Z,22.74
2016-08-20T08:58:59.955Z,22.74
2016-08-20T08:59:25.503Z,22.78
2016-08-20T08:59:51.102Z,22.64
2016-08-20T09:00:16.661Z,22.62
2016-08-20T09:00:42.386Z,22.74
2016-08-20T09:01:07.956Z,22.77
2016-08-20T09:01:55.795Z,22.74
2016-08-20T09:02:21.408Z,22.67
2016-08-20T09:02:46.964Z,22.71
2016-08-20T09:03:12.531Z,22.67
2016-08-20T09:03:38.116Z,22.68
2016-08-20T09:04:03.688Z,22.68
2016-08-20T09:04:29.324Z,22.67
2016-08-20T09:04:54.885Z,22.64
2016-08-20T09:05:20.437Z,22.74
2016-08-20T09:05:46.025Z,22.78
2016-08-20T09:06:11.707Z,22.74
2016-08-20T09:06:37.271Z,22.65
2016-08-20T09:07:02.835Z,22.67
2016-08-20T09:07:28.515Z,22.72
2016-08-20T09:07:54.096Z,22.74
2016-08-20T09:08:19.724Z,22.72
2016-08-20T09:08:45.325Z,22.67
2016-08-20T09:09:10.897Z,22.77
2016-08-20T09:09:36.518Z,22.74
2016-08-20T09:10:02.083Z,22.64
2016-08-20T09:10:27.655Z,22.67
2016-08-20T09:10:53.280Z,22.72
2016-08-20T09:11:18.872Z,22.64
2016-08-20T09:11:44.465Z,22.71
2016-08-20T09:12:10.021Z,22.59
2016-08-20T09:12:35.585Z,22.74
2016-08-20T09:13:01.159Z,22.64
2016-08-20T09:13:26.736Z,22.67
2016-08-20T09:13:52.282Z,22.77
2016-08-20T09:14:17.907Z,22.75
2016-08-20T09:14:43.465Z,22.78
2016-08-20T09:15:09.045Z,22.74
2016-08-20T09:15:34.626Z,22.75
2016-08-20T09:16:00.207Z,22.71
2016-08-20T09:16:25.781Z,22.72
2016-08-20T09:16:51.337Z,22.71
2016-08-20T09:17:16.895Z,22.78
2016-08-20T09:17:42.537Z,22.78
2016-08-20T09:18:08.108Z,22.72
2016-08-20T09:18:33.797Z,22.74
2016-08-20T09:18:59.357Z,22.65
2016-08-20T09:19:24.934Z,22.68
2016-08-20T09:19:50.516Z,22.74
2016-08-20T09:20:16.102Z,22.74
2016-08-20T09:20:41.706Z,22.74
2016-08-20T09:21:07.268Z,22.71
2016-08-20T09:21:32.837Z,22.77
2016-08-20T09:21:58.430Z,22.8
2016-08-20T09:22:24.370Z,22.84
2016-08-20T09:22:49.947Z,22.78
2016-08-20T09:23:15.554Z,22.77
2016-08-20T09:23:41.177Z,22.74
2016-08-20T09:24:06.730Z,22.78
2016-08-20T09:24:32.402Z,22.74
2016-08-20T09:24:58.043Z,22.71
2016-08-20T09:25:23.709Z,22.74
2016-08-20T09:25:49.255Z,22.77
2016-08-20T09:26:14.894Z,22.82
2016-08-20T09:26:40.460Z,22.78
2016-08-20T09:27:06.042Z,22.74
2016-08-20T09:27:31.627Z,22.78
2016-08-20T09:27:57.277Z,22.75
2016-08-20T09:28:22.882Z,22.8
2016-08-20T09:28:48.441Z,22.72
2016-08-20T09:29:14.061Z,22.75
2016-08-20T09:29:39.644Z,22.75
2016-08-20T09:30:05.212Z,22.71
2016-08-20T09:30:30.771Z,22.71
2016-08-20T09:30:56.367Z,22.78
2016-08-20T09:31:21.983Z,22.74
2016-08-20T09:31:47.531Z,22.77
2016-08-20T09:32:13.199Z,22.77
2016-08-20T09:32:39.726Z,22.77
2016-08-20T09:33:05.286Z,22.82
2016-08-20T09:33:30.955Z,22.74
2016-08-20T09:33:56.543Z,22.74
2016-08-20T09:34:22.146Z,22.75
2016-08-20T09:34:47.782Z,22.83
2016-08-20T09:35:13.347Z,22.8
2016-08-20T09:35:38.907Z,22.87
2016-08-20T09:36:04.667Z,22.78
2016-08-20T09:36:30.244Z,22.82
2016-08-20T09:36:55.813Z,22.87
2016-08-20T09:37:21.393Z,22.9
2016-08-20T09:37:47.063Z,22.93
2016-08-20T09:38:12.658Z,22.8
2016-08-20T09:38:38.235Z,22.92